createdAt,value
2023-05-09T00:00:53.277Z,95525.00
2023-05-09T00:01:53.328Z,95526.00
2023-05-09T00:02:53.410Z,95523.00
2023-05-09T00:03:53.450Z,95525.00
2023-05-09T00:04:53.477Z,95525.00
2023-05-09T00:05:53.451Z,95523.00
2023-05-09T00:06:53.492Z,95521.00
2023-05-09T00:07:53.518Z,95519.00
2023-05-09T00:08:53.522Z,95519.00
2023-05-09T00:09:53.537Z,95517.00
2023-05-09T00:10:53.679Z,95515.00
2023-05-09T00:11:53.553Z,95515.00
2023-05-09T00:12:53.574Z,95511.00
2023-05-09T00:13:53.576Z,95509.00
2023-05-09T00:14:53.572Z,95509.00
2023-05-09T00:15:53.584Z,95503.00
2023-05-09T00:16:53.673Z,95503.00
2023-05-09T00:17:53.662Z,95503.00
2023-05-09T00:18:53.599Z,95501.00
2023-05-09T00:19:53.597Z,95503.00
2023-05-09T00:20:53.597Z,95503.00
2023-05-09T00:21:53.592Z,95501.00
2023-05-09T00:22:53.645Z,95503.00
2023-05-09T00:23:53.613Z,95503.00
2023-05-09T00:24:53.623Z,95499.00
2023-05-09T00:25:53.616Z,95501.00
2023-05-09T00:26:53.745Z,95497.00
2023-05-09T00:27:53.620Z,95497.00
2023-05-09T00:28:53.636Z,95495.00
2023-05-09T00:29:53.647Z,95495.00
2023-05-09T00:30:53.662Z,95493.00
2023-05-09T00:31:53.700Z,95491.00
2023-05-09T00:32:53.674Z,95493.00
2023-05-09T00:33:53.671Z,95495.00
2023-05-09T00:34:53.673Z,95493.00
2023-05-09T00:35:53.670Z,95489.00
2023-05-09T00:36:53.686Z,95493.00
2023-05-09T00:37:53.706Z,95491.00
2023-05-09T00:38:53.695Z,95491.00
2023-05-09T00:39:53.688Z,95489.00
2023-05-09T00:40:53.695Z,95485.00
2023-05-09T00:41:53.682Z,95485.00
2023-05-09T00:42:53.810Z,95485.00
2023-05-09T00:43:53.678Z,95483.00
2023-05-09T00:44:53.684Z,95485.00
2023-05-09T00:45:53.735Z,95483.00
2023-05-09T00:46:53.710Z,95483.00
2023-05-09T00:47:53.738Z,95481.00
2023-05-09T00:48:53.708Z,95483.00
2023-05-09T00:49:53.714Z,95483.00
2023-05-09T00:50:53.722Z,95483.00
2023-05-09T00:51:53.731Z,95485.00
2023-05-09T00:52:53.727Z,95483.00
2023-05-09T00:53:53.733Z,95481.00
2023-05-09T00:54:53.718Z,95481.00
2023-05-09T00:55:53.718Z,95477.00
2023-05-09T00:56:53.726Z,95475.00
2023-05-09T00:57:53.731Z,95477.00
2023-05-09T00:58:53.855Z,95477.00
2023-05-09T00:59:53.711Z,95477.00
2023-05-09T01:00:53.758Z,95479.00
2023-05-09T01:01:53.749Z,95479.00
2023-05-09T01:02:53.850Z,95485.00
2023-05-09T01:03:53.739Z,95485.00
2023-05-09T01:04:53.720Z,95475.00
2023-05-09T01:05:53.717Z,95475.00
2023-05-09T01:06:53.723Z,95475.00
2023-05-09T01:07:53.721Z,95475.00
2023-05-09T01:08:53.721Z,95473.00
2023-05-09T01:09:53.715Z,95475.00
2023-05-09T01:10:53.727Z,95471.00
2023-05-09T01:11:53.727Z,95471.00
2023-05-09T01:12:53.757Z,95471.00
2023-05-09T01:13:53.708Z,95470.00
2023-05-09T01:14:53.842Z,95471.00
2023-05-09T01:15:53.727Z,95473.00
2023-05-09T01:16:53.713Z,95473.00
2023-05-09T01:17:53.746Z,95471.00
2023-05-09T01:18:53.702Z,95473.00
2023-05-09T01:19:53.696Z,95473.00
2023-05-09T01:20:53.692Z,95471.00
2023-05-09T01:21:53.715Z,95471.00
2023-05-09T01:22:53.681Z,95471.00
2023-05-09T01:23:53.685Z,95468.00
2023-05-09T01:24:53.668Z,95468.00
2023-05-09T01:25:53.675Z,95466.00
2023-05-09T01:26:53.669Z,95466.00
2023-05-09T01:27:53.669Z,95466.00
2023-05-09T01:28:53.669Z,95466.00
2023-05-09T01:29:53.668Z,95470.00
2023-05-09T01:30:53.791Z,95466.00
2023-05-09T01:31:53.693Z,95468.00
2023-05-09T01:32:53.709Z,95466.00
2023-05-09T01:33:53.666Z,95466.00
2023-05-09T01:34:53.668Z,95468.00
2023-05-09T01:35:53.658Z,95470.00
2023-05-09T01:36:53.662Z,95468.00
2023-05-09T01:37:53.656Z,95464.00
2023-05-09T01:38:53.673Z,95464.00
2023-05-09T01:39:53.655Z,95464.00
2023-05-09T01:40:53.661Z,95462.00
2023-05-09T01:41:53.679Z,95464.00
2023-05-09T01:42:53.697Z,95462.00
2023-05-09T01:43:53.752Z,95464.00
2023-05-09T01:44:53.658Z,95464.00
2023-05-09T01:45:53.645Z,95464.00
2023-05-09T01:46:53.839Z,95462.00
2023-05-09T01:47:53.675Z,95464.00
2023-05-09T01:48:53.624Z,95464.00
2023-05-09T01:49:53.625Z,95464.00
2023-05-09T01:50:53.632Z,95464.00
2023-05-09T01:51:53.629Z,95462.00
2023-05-09T01:52:53.646Z,95464.00
2023-05-09T01:53:53.630Z,95462.00
2023-05-09T01:54:53.624Z,95460.00
2023-05-09T01:55:53.629Z,95460.00
2023-05-09T01:56:53.620Z,95462.00
2023-05-09T01:57:53.622Z,95460.00
2023-05-09T01:58:53.624Z,95458.00
2023-05-09T01:59:53.619Z,95456.00
2023-05-09T02:00:53.710Z,95460.00
2023-05-09T02:01:53.635Z,95460.00
2023-05-09T02:02:53.842Z,95460.00
2023-05-09T02:03:53.615Z,95460.00
2023-05-09T02:04:53.608Z,95454.00
2023-05-09T02:05:53.612Z,95458.00
2023-05-09T02:06:53.610Z,95456.00
2023-05-09T02:07:53.615Z,95458.00
2023-05-09T02:08:53.612Z,95458.00
2023-05-09T02:09:53.611Z,95454.00
2023-05-09T02:10:53.606Z,95456.00
2023-05-09T02:11:53.613Z,95456.00
2023-05-09T02:12:53.648Z,95454.00
2023-05-09T02:13:53.604Z,95450.00
2023-05-09T02:14:53.593Z,95450.00
2023-05-09T02:15:53.690Z,95448.00
2023-05-09T02:16:53.664Z,95448.00
2023-05-09T02:17:53.614Z,95446.00
2023-05-09T02:18:53.722Z,95446.00
2023-05-09T02:19:53.599Z,95444.00
2023-05-09T02:20:53.649Z,95444.00
2023-05-09T02:21:53.589Z,95446.00
2023-05-09T02:22:53.593Z,95444.00
2023-05-09T02:23:53.588Z,95444.00
2023-05-09T02:24:53.582Z,95444.00
2023-05-09T02:25:53.590Z,95444.00
2023-05-09T02:26:53.594Z,95444.00
2023-05-09T02:27:53.591Z,95442.00
2023-05-09T02:28:53.595Z,95442.00
2023-05-09T02:29:53.596Z,95444.00
2023-05-09T02:30:53.595Z,95442.00
2023-05-09T02:31:53.638Z,95440.00
2023-05-09T02:32:53.690Z,95442.00
2023-05-09T02:33:53.598Z,95438.00
2023-05-09T02:34:53.731Z,95440.00
2023-05-09T02:35:53.623Z,95440.00
2023-05-09T02:36:53.602Z,95440.00
2023-05-09T02:37:53.648Z,95438.00
2023-05-09T02:38:53.618Z,95440.00
2023-05-09T02:39:53.620Z,95438.00
2023-05-09T02:40:53.609Z,95438.00
2023-05-09T02:41:53.619Z,95438.00
2023-05-09T02:42:53.615Z,95436.00
2023-05-09T02:43:53.619Z,95432.00
2023-05-09T02:44:53.623Z,95432.00
2023-05-09T02:45:53.636Z,95430.00
2023-05-09T02:46:53.652Z,95430.00
2023-05-09T02:47:53.708Z,95426.00
2023-05-09T02:48:54.449Z,95430.00
2023-05-09T02:49:53.626Z,95426.00
2023-05-09T02:50:53.749Z,95424.00
2023-05-09T02:51:53.665Z,95426.00
2023-05-09T02:52:53.637Z,95423.00
2023-05-09T02:53:53.632Z,95423.00
2023-05-09T02:54:53.636Z,95423.00
2023-05-09T02:55:53.641Z,95421.00
2023-05-09T02:56:53.677Z,95421.00
2023-05-09T02:58:02.153Z,95419.00
2023-05-09T02:58:53.647Z,95419.00
2023-05-09T02:59:53.630Z,95419.00
2023-05-09T03:00:54.195Z,95421.00
2023-05-09T03:01:53.702Z,95417.00
2023-05-09T03:02:53.667Z,95417.00
2023-05-09T03:03:53.653Z,95415.00
2023-05-09T03:04:53.599Z,95419.00
2023-05-09T03:05:53.584Z,95419.00
2023-05-09T03:06:53.708Z,95421.00
2023-05-09T03:07:53.580Z,95415.00
2023-05-09T03:08:53.566Z,95419.00
2023-05-09T03:09:53.567Z,95417.00
2023-05-09T03:10:53.548Z,95417.00
2023-05-09T03:11:53.539Z,95417.00
2023-05-09T03:12:53.565Z,95419.00
2023-05-09T03:13:53.524Z,95419.00
2023-05-09T03:14:53.521Z,95415.00
2023-05-09T03:15:53.583Z,95419.00
2023-05-09T03:16:53.516Z,95419.00
2023-05-09T03:17:53.573Z,95417.00
2023-05-09T03:18:53.487Z,95421.00
2023-05-09T03:19:53.479Z,95423.00
2023-05-09T03:20:53.477Z,95419.00
2023-05-09T03:21:54.284Z,95423.00
2023-05-09T03:22:53.587Z,95424.00
2023-05-09T03:23:53.457Z,95424.00
2023-05-09T03:24:53.448Z,95423.00
2023-05-09T03:25:53.448Z,95424.00
2023-05-09T03:26:53.631Z,95423.00
2023-05-09T03:27:53.638Z,95421.00
2023-05-09T03:28:53.635Z,95423.00
2023-05-09T03:29:53.646Z,95419.00
2023-05-09T03:30:53.635Z,95419.00
2023-05-09T03:31:53.726Z,95417.00
2023-05-09T03:32:53.738Z,95417.00
2023-05-09T03:33:53.665Z,95417.00
2023-05-09T03:34:53.660Z,95419.00
2023-05-09T03:35:53.665Z,95417.00
2023-05-09T03:36:53.668Z,95415.00
2023-05-09T03:37:53.678Z,95415.00
2023-05-09T03:38:53.792Z,95415.00
2023-05-09T03:39:53.700Z,95415.00
2023-05-09T03:40:53.684Z,95413.00
2023-05-09T03:41:53.685Z,95411.00
2023-05-09T03:42:53.707Z,95409.00
2023-05-09T03:43:54.208Z,95409.00
2023-05-09T03:44:53.707Z,95409.00
2023-05-09T03:45:53.698Z,95409.00
2023-05-09T03:46:53.740Z,95399.00
2023-05-09T03:47:53.776Z,95401.00
2023-05-09T03:48:53.736Z,95399.00
2023-05-09T03:49:53.736Z,95397.00
2023-05-09T03:50:53.740Z,95399.00
2023-05-09T03:51:53.751Z,95393.00
2023-05-09T03:52:53.757Z,95397.00
2023-05-09T03:53:53.770Z,95397.00
2023-05-09T03:54:53.904Z,95397.00
2023-05-09T03:55:53.774Z,95399.00
2023-05-09T03:56:53.782Z,95399.00
2023-05-09T03:57:53.795Z,95401.00
2023-05-09T03:58:53.794Z,95399.00
2023-05-09T03:59:53.803Z,95401.00
2023-05-09T04:00:53.809Z,95401.00
2023-05-09T04:01:53.868Z,95401.00
2023-05-09T04:02:53.871Z,95409.00
2023-05-09T04:03:53.881Z,95411.00
2023-05-09T04:04:53.837Z,95411.00
2023-05-09T04:05:53.847Z,95411.00
2023-05-09T04:06:53.850Z,95411.00
2023-05-09T04:07:53.847Z,95411.00
2023-05-09T04:08:53.851Z,95409.00
2023-05-09T04:09:53.859Z,95411.00
2023-05-09T04:10:54.007Z,95411.00
2023-05-09T04:11:53.885Z,95411.00
2023-05-09T04:12:53.928Z,95411.00
2023-05-09T04:13:53.912Z,95411.00
2023-05-09T04:14:53.909Z,95411.00
2023-05-09T04:15:53.943Z,95411.00
2023-05-09T04:16:53.980Z,95411.00
2023-05-09T04:17:53.937Z,95411.00
2023-05-09T04:18:53.936Z,95413.00
2023-05-09T04:19:53.939Z,95411.00
2023-05-09T04:20:53.947Z,95413.00
2023-05-09T04:21:53.955Z,95415.00
2023-05-09T04:22:53.953Z,95413.00
2023-05-09T04:23:53.977Z,95415.00
2023-05-09T04:24:53.975Z,95415.00
2023-05-09T04:25:53.990Z,95417.00
2023-05-09T04:26:54.143Z,95419.00
2023-05-09T04:27:54.020Z,95417.00
2023-05-09T04:28:54.025Z,95415.00
2023-05-09T04:29:54.029Z,95417.00
2023-05-09T04:30:54.190Z,95415.00
2023-05-09T04:31:54.198Z,95415.00
2023-05-09T04:32:54.083Z,95413.00
2023-05-09T04:33:54.082Z,95415.00
2023-05-09T04:34:54.091Z,95415.00
2023-05-09T04:35:54.101Z,95415.00
2023-05-09T04:36:54.112Z,95415.00
2023-05-09T04:37:54.127Z,95415.00
2023-05-09T04:38:54.138Z,95413.00
2023-05-09T04:39:54.157Z,95413.00
2023-05-09T04:40:54.199Z,95415.00
2023-05-09T04:41:54.181Z,95413.00
2023-05-09T04:42:54.322Z,95417.00
2023-05-09T04:43:54.202Z,95419.00
2023-05-09T04:44:54.226Z,95421.00
2023-05-09T04:45:54.226Z,95417.00
2023-05-09T04:46:54.227Z,95421.00
2023-05-09T04:47:54.297Z,95421.00
2023-05-09T04:48:54.246Z,95421.00
2023-05-09T04:49:55.090Z,95419.00
2023-05-09T04:50:54.277Z,95423.00
2023-05-09T04:51:54.286Z,95419.00
2023-05-09T04:52:54.292Z,95417.00
2023-05-09T04:53:54.300Z,95417.00
2023-05-09T04:54:54.305Z,95415.00
2023-05-09T04:55:54.328Z,95415.00
2023-05-09T04:56:57.908Z,95415.00
2023-05-09T04:57:54.334Z,95401.00
2023-05-09T04:58:54.448Z,95399.00
2023-05-09T04:59:54.307Z,95399.00
2023-05-09T05:00:54.308Z,95397.00
2023-05-09T05:01:54.327Z,95397.00
2023-05-09T05:02:54.296Z,95393.00
2023-05-09T05:03:54.286Z,95391.00
2023-05-09T05:05:03.004Z,95395.00
2023-05-09T05:05:54.313Z,95395.00
2023-05-09T05:06:54.269Z,95391.00
2023-05-09T05:07:54.265Z,95393.00
2023-05-09T05:08:54.245Z,95397.00
2023-05-09T05:09:54.238Z,95395.00
2023-05-09T05:10:54.241Z,95395.00
2023-05-09T05:12:00.869Z,95397.00
2023-05-09T05:12:54.282Z,95395.00
2023-05-09T05:13:54.219Z,95395.00
2023-05-09T05:14:54.330Z,95395.00
2023-05-09T05:15:54.234Z,95395.00
2023-05-09T05:16:54.205Z,95399.00
2023-05-09T05:17:54.212Z,95401.00
2023-05-09T05:18:54.269Z,95401.00
2023-05-09T05:19:54.234Z,95399.00
2023-05-09T05:20:54.529Z,95399.00
2023-05-09T05:21:54.172Z,95395.00
2023-05-09T05:22:54.289Z,95393.00
2023-05-09T05:23:54.142Z,95391.00
2023-05-09T05:24:54.131Z,95391.00
2023-05-09T05:25:54.131Z,95391.00
2023-05-09T05:26:54.114Z,95389.00
2023-05-09T05:27:54.300Z,95387.00
2023-05-09T05:28:54.104Z,95385.00
2023-05-09T05:29:54.108Z,95387.00
2023-05-09T05:30:54.214Z,95389.00
2023-05-09T05:31:54.419Z,95387.00
2023-05-09T05:32:54.129Z,95387.00
2023-05-09T05:33:54.071Z,95387.00
2023-05-09T05:34:54.054Z,95387.00
2023-05-09T05:35:54.062Z,95391.00
2023-05-09T05:36:54.041Z,95389.00
2023-05-09T05:37:55.299Z,95387.00
2023-05-09T05:38:54.046Z,95389.00
2023-05-09T05:39:54.013Z,95389.00
2023-05-09T05:40:54.013Z,95387.00
2023-05-09T05:41:53.999Z,95391.00
2023-05-09T05:42:54.297Z,95391.00
2023-05-09T05:44:01.373Z,95389.00
2023-05-09T05:44:54.027Z,95389.00
2023-05-09T05:45:55.036Z,95387.00
2023-05-09T05:46:54.076Z,95389.00
2023-05-09T05:47:54.358Z,95391.00
2023-05-09T05:48:53.951Z,95391.00
2023-05-09T05:49:57.126Z,95389.00
2023-05-09T05:50:53.933Z,95391.00
2023-05-09T05:51:53.922Z,95389.00
2023-05-09T12:41:18.767Z,94774.00
2023-05-09T12:42:10.442Z,94770.00
2023-05-09T12:43:10.428Z,94768.00
2023-05-09T12:44:10.428Z,94766.00
2023-05-09T12:45:10.654Z,94762.00
2023-05-09T12:46:10.410Z,94760.00
2023-05-09T12:47:10.505Z,94760.00
2023-05-09T12:48:10.410Z,94756.00
2023-05-09T12:49:10.386Z,94752.00
2023-05-09T12:50:10.644Z,94756.00
2023-05-09T12:51:10.378Z,94752.00
2023-05-09T12:52:10.381Z,94754.00
2023-05-09T12:53:10.365Z,94750.00
2023-05-09T12:54:10.359Z,94746.00
2023-05-09T12:55:10.663Z,94746.00
2023-05-09T12:56:10.329Z,94742.00
2023-05-09T12:57:10.589Z,94739.00
2023-05-09T12:58:10.391Z,94739.00
2023-05-09T12:59:10.411Z,94740.00
2023-05-09T13:00:10.707Z,94740.00
2023-05-09T13:01:10.516Z,94739.00
2023-05-09T13:02:10.559Z,94737.00
2023-05-09T13:03:10.564Z,94735.00
2023-05-09T13:04:12.554Z,94731.00
2023-05-09T13:05:10.577Z,94731.00
2023-05-09T13:06:10.543Z,94731.00
2023-05-09T13:07:10.562Z,94727.00
2023-05-09T13:08:10.552Z,94721.00
2023-05-09T13:09:10.531Z,94721.00
2023-05-09T13:10:12.352Z,94719.00
2023-05-09T13:12:09.661Z,94713.00
2023-05-09T13:13:10.599Z,94709.00
2023-05-09T13:14:10.529Z,94709.00
2023-05-09T13:15:10.709Z,94705.00
2023-05-09T13:16:12.061Z,94703.00
2023-05-09T13:17:10.558Z,94701.00
2023-05-09T13:18:10.532Z,94697.00
2023-05-09T13:19:10.484Z,94695.00
2023-05-09T13:20:10.697Z,94695.00
2023-05-09T13:21:10.475Z,94692.00
2023-05-09T13:22:12.241Z,94688.00
2023-05-09T13:23:10.450Z,94688.00
2023-05-09T13:24:10.452Z,94686.00
2023-05-09T13:25:10.416Z,94686.00
2023-05-09T13:26:10.440Z,94686.00
2023-05-09T13:27:10.405Z,94686.00
2023-05-09T13:28:10.397Z,94684.00
2023-05-09T13:29:10.514Z,94680.00
2023-05-09T13:30:10.407Z,94678.00
2023-05-09T13:31:10.723Z,94676.00
2023-05-09T13:32:10.367Z,94674.00
2023-05-09T13:33:24.589Z,94672.00
2023-05-09T13:34:10.353Z,94672.00
2023-05-09T13:35:10.344Z,94670.00
2023-05-09T13:36:10.646Z,94670.00
2023-05-09T13:37:10.328Z,94668.00
2023-05-09T13:38:10.641Z,94666.00
2023-05-09T13:39:10.322Z,94666.00
2023-05-09T13:40:10.313Z,94668.00
2023-05-09T13:41:10.686Z,94666.00
2023-05-09T13:42:10.301Z,94662.00
2023-05-09T13:43:10.288Z,94660.00
2023-05-09T13:44:10.293Z,94660.00
2023-05-09T13:45:10.392Z,94656.00
2023-05-09T13:46:10.728Z,94658.00
2023-05-09T13:47:10.271Z,94656.00
2023-05-09T13:48:10.339Z,94654.00
2023-05-09T13:49:10.249Z,94652.00
2023-05-09T13:50:10.245Z,94650.00
2023-05-09T13:51:10.234Z,94646.00
2023-05-09T13:52:10.243Z,94648.00
2023-05-09T13:53:10.235Z,94644.00
2023-05-09T13:54:10.218Z,94642.00
2023-05-09T13:55:10.209Z,94646.00
2023-05-09T13:56:10.200Z,94644.00
2023-05-09T13:57:10.191Z,94642.00
2023-05-09T13:58:10.188Z,94642.00
2023-05-09T13:59:10.191Z,94641.00
2023-05-09T14:00:10.195Z,94641.00
2023-05-09T14:01:10.346Z,94631.00
2023-05-09T14:02:10.171Z,94627.00
2023-05-09T14:03:10.156Z,94627.00
2023-05-09T14:04:10.236Z,94625.00
2023-05-09T14:05:10.137Z,94623.00
2023-05-09T14:06:10.142Z,94621.00
2023-05-09T14:07:10.138Z,94621.00
2023-05-09T14:08:10.153Z,94619.00
2023-05-09T14:09:10.116Z,94617.00
2023-05-09T14:10:15.887Z,94611.00
2023-05-09T14:11:10.105Z,94611.00
2023-05-09T14:12:10.103Z,94611.00
2023-05-09T14:13:10.170Z,94609.00
2023-05-09T14:14:10.093Z,94607.00
2023-05-09T14:15:10.079Z,94605.00
2023-05-09T14:16:10.117Z,94603.00
2023-05-09T14:17:10.190Z,94601.00
2023-05-09T14:18:10.047Z,94601.00
2023-05-09T14:19:10.052Z,94597.00
2023-05-09T14:20:10.136Z,94597.00
2023-05-09T14:21:10.038Z,94595.00
2023-05-09T14:22:10.038Z,94595.00
2023-05-09T14:23:10.073Z,94593.00
2023-05-09T14:24:10.011Z,94593.00
2023-05-09T14:25:10.005Z,94592.00
2023-05-09T14:26:09.995Z,94590.00
2023-05-09T14:27:09.988Z,94590.00
2023-05-09T14:28:09.982Z,94592.00
2023-05-09T14:29:10.008Z,94590.00
2023-05-09T14:30:09.971Z,94588.00
2023-05-09T14:31:09.980Z,94586.00
2023-05-09T14:32:09.957Z,94586.00
2023-05-09T14:33:10.068Z,94586.00
2023-05-09T14:34:10.678Z,94582.00
2023-05-09T14:35:09.971Z,94584.00
2023-05-09T14:36:10.165Z,94578.00
2023-05-09T14:37:09.910Z,94578.00
2023-05-09T14:38:09.924Z,94578.00
2023-05-09T14:39:09.912Z,94576.00
2023-05-09T14:40:09.912Z,94572.00
2023-05-09T14:41:09.888Z,94572.00
2023-05-09T14:42:09.909Z,94572.00
2023-05-09T14:43:09.870Z,94574.00
2023-05-09T14:44:09.891Z,94572.00
2023-05-09T14:45:09.872Z,94570.00
2023-05-09T14:46:09.898Z,94570.00
2023-05-09T14:47:10.001Z,94572.00
2023-05-09T14:48:09.864Z,94572.00
2023-05-09T14:49:09.953Z,94568.00
2023-05-09T14:50:09.826Z,94568.00
2023-05-09T14:51:09.850Z,94566.00
2023-05-09T14:52:09.814Z,94566.00
2023-05-09T14:53:09.806Z,94566.00
2023-05-09T14:54:09.811Z,94568.00
2023-05-09T14:55:09.840Z,94564.00
2023-05-09T14:56:09.865Z,94560.00
2023-05-09T14:57:09.902Z,94558.00
2023-05-09T14:58:09.910Z,94556.00
2023-05-09T14:59:09.933Z,94554.00
2023-05-09T15:00:20.178Z,94558.00
2023-05-09T15:01:09.976Z,94556.00
2023-05-09T15:02:09.942Z,94556.00
2023-05-09T15:03:09.962Z,94558.00
2023-05-09T15:04:09.960Z,94554.00
2023-05-09T15:05:10.053Z,94556.00
2023-05-09T15:06:09.927Z,94552.00
2023-05-09T15:07:09.913Z,94552.00
2023-05-09T15:08:09.905Z,94550.00
2023-05-09T15:09:09.905Z,94550.00
2023-05-09T15:10:10.194Z,94545.00
2023-05-09T15:11:09.893Z,94541.00
2023-05-09T15:12:09.867Z,94539.00
2023-05-09T15:13:09.895Z,94539.00
2023-05-09T15:14:09.851Z,94539.00
2023-05-09T15:15:09.853Z,94541.00
2023-05-09T15:16:09.897Z,94535.00
2023-05-09T15:17:09.912Z,94535.00
2023-05-09T15:18:09.834Z,94533.00
2023-05-09T15:19:09.858Z,94533.00
2023-05-09T15:20:09.818Z,94531.00
2023-05-09T15:21:09.842Z,94531.00
2023-05-09T15:22:09.807Z,94527.00
2023-05-09T15:23:09.852Z,94527.00
2023-05-09T15:24:09.793Z,94525.00
2023-05-09T15:25:09.780Z,94525.00
2023-05-09T15:26:09.781Z,94523.00
2023-05-09T15:27:09.773Z,94521.00
2023-05-09T15:28:09.774Z,94523.00
2023-05-09T15:29:09.756Z,94521.00
2023-05-09T15:30:09.764Z,94521.00
2023-05-09T15:31:09.775Z,94521.00
2023-05-09T15:32:09.735Z,94521.00
2023-05-09T15:33:09.830Z,94521.00
2023-05-09T15:34:09.720Z,94519.00
2023-05-09T15:35:09.711Z,94523.00
2023-05-09T15:36:09.746Z,94523.00
2023-05-09T15:37:09.836Z,94519.00
2023-05-09T15:38:09.697Z,94517.00
2023-05-09T15:39:09.696Z,94515.00
2023-05-09T15:40:09.679Z,94515.00
2023-05-09T15:41:09.678Z,94515.00
2023-05-09T15:42:09.668Z,94513.00
2023-05-09T15:43:09.665Z,94511.00
2023-05-09T15:44:09.663Z,94511.00
2023-05-09T15:45:09.640Z,94509.00
2023-05-09T15:46:09.692Z,94509.00
2023-05-09T15:47:09.643Z,94507.00
2023-05-09T15:48:09.701Z,94509.00
2023-05-09T15:49:09.634Z,94507.00
2023-05-09T15:50:09.610Z,94505.00
2023-05-09T15:51:09.607Z,94507.00
2023-05-09T15:52:09.604Z,94505.00
2023-05-09T15:53:09.773Z,94507.00
2023-05-09T15:54:09.601Z,94501.00
2023-05-09T15:55:09.594Z,94501.00
2023-05-09T15:56:09.590Z,94499.00
2023-05-09T15:57:09.589Z,94498.00
2023-05-09T15:58:09.559Z,94494.00
2023-05-09T15:59:09.553Z,94494.00
2023-05-09T16:00:09.549Z,94492.00
2023-05-09T16:01:09.564Z,94494.00
2023-05-09T16:02:09.596Z,94494.00
2023-05-09T16:03:09.599Z,94492.00
2023-05-09T16:04:09.529Z,94494.00
2023-05-09T16:05:09.550Z,94490.00
2023-05-09T16:06:09.514Z,94490.00
2023-05-09T16:07:09.506Z,94490.00
2023-05-09T16:08:09.508Z,94490.00
2023-05-09T16:09:09.619Z,94490.00
2023-05-09T16:10:09.487Z,94488.00
2023-05-09T16:11:09.489Z,94488.00
2023-05-09T16:12:09.469Z,94484.00
2023-05-09T16:13:09.536Z,94484.00
2023-05-09T16:14:09.515Z,94482.00
2023-05-09T16:15:09.451Z,94484.00
2023-05-09T16:16:09.510Z,94482.00
2023-05-09T16:17:09.442Z,94482.00
2023-05-09T16:18:09.436Z,94478.00
2023-05-09T16:19:09.425Z,94480.00
2023-05-09T16:20:09.487Z,94478.00
2023-05-09T16:21:09.444Z,94476.00
2023-05-09T16:22:09.398Z,94476.00
2023-05-09T16:23:09.398Z,94476.00
2023-05-09T16:24:09.407Z,94478.00
2023-05-09T16:25:09.527Z,94478.00
2023-05-09T16:26:09.416Z,94478.00
2023-05-09T16:27:09.420Z,94478.00
2023-05-09T16:28:09.414Z,94476.00
2023-05-09T16:29:09.428Z,94476.00
2023-05-09T16:30:09.558Z,94476.00
2023-05-09T16:31:09.456Z,94476.00
2023-05-09T16:32:09.515Z,94476.00
2023-05-09T16:33:09.500Z,94476.00
2023-05-09T16:34:09.465Z,94478.00
2023-05-09T16:35:09.475Z,94478.00
2023-05-09T16:36:09.494Z,94478.00
2023-05-09T16:37:09.483Z,94478.00
2023-05-09T16:38:09.505Z,94478.00
2023-05-09T16:39:09.501Z,94480.00
2023-05-09T16:40:09.518Z,94480.00
2023-05-09T16:41:09.664Z,94478.00
2023-05-09T16:42:09.535Z,94474.00
2023-05-09T16:43:09.543Z,94474.00
2023-05-09T16:44:09.552Z,94474.00
2023-05-09T16:45:09.569Z,94470.00
2023-05-09T16:46:09.692Z,94468.00
2023-05-09T16:47:09.599Z,94470.00
2023-05-09T16:48:09.695Z,94470.00
2023-05-09T16:49:09.618Z,94472.00
2023-05-09T16:50:09.626Z,94472.00
2023-05-09T16:51:09.643Z,94470.00
2023-05-09T16:52:09.653Z,94470.00
2023-05-09T16:53:09.675Z,94470.00
2023-05-09T16:54:09.676Z,94470.00
2023-05-09T16:55:09.728Z,94468.00
2023-05-09T16:56:09.697Z,94466.00
2023-05-09T16:57:09.858Z,94466.00
2023-05-09T16:58:09.726Z,94466.00
2023-05-09T16:59:11.306Z,94470.00
2023-05-09T17:00:09.893Z,94470.00
2023-05-09T17:01:09.881Z,94468.00
2023-05-09T17:02:09.844Z,94468.00
2023-05-09T17:03:09.883Z,94464.00
2023-05-09T17:04:09.881Z,94468.00
2023-05-09T17:05:09.875Z,94464.00
2023-05-09T17:06:09.887Z,94464.00
2023-05-09T17:07:10.724Z,94464.00
2023-05-09T17:08:09.906Z,94464.00
2023-05-09T17:09:09.936Z,94466.00
2023-05-09T17:10:09.928Z,94464.00
2023-05-09T17:11:09.948Z,94464.00
2023-05-09T17:12:09.959Z,94464.00
2023-05-09T17:13:10.131Z,94466.00
2023-05-09T17:14:09.980Z,94464.00
2023-05-09T17:15:09.982Z,94468.00
2023-05-09T17:16:10.022Z,94468.00
2023-05-09T17:17:10.042Z,94468.00
2023-05-09T17:18:10.046Z,94466.00
2023-05-09T17:19:10.039Z,94466.00
2023-05-09T17:20:10.048Z,94464.00
2023-05-09T17:21:10.075Z,94464.00
2023-05-09T17:22:10.097Z,94464.00
2023-05-09T17:23:10.086Z,94462.00
2023-05-09T17:24:10.108Z,94460.00
2023-05-09T17:25:10.112Z,94460.00
2023-05-09T17:26:10.123Z,94456.00
2023-05-09T17:27:10.131Z,94458.00
2023-05-09T17:28:10.161Z,94454.00
2023-05-09T17:29:10.299Z,94452.00
2023-05-09T17:30:10.168Z,94454.00
2023-05-09T17:31:10.227Z,94452.00
2023-05-09T17:32:10.197Z,94452.00
2023-05-09T17:33:10.207Z,94448.00
2023-05-09T17:34:10.300Z,94454.00
2023-05-09T17:35:10.238Z,94452.00
2023-05-09T17:36:10.244Z,94448.00
2023-05-09T17:37:10.264Z,94448.00
2023-05-09T17:38:10.281Z,94450.00
2023-05-09T17:39:10.320Z,94448.00
2023-05-09T17:40:10.308Z,94448.00
2023-05-09T17:41:10.317Z,94444.00
2023-05-09T17:42:12.149Z,94444.00
2023-05-09T17:43:10.340Z,94441.00
2023-05-09T17:44:10.318Z,94443.00
2023-05-09T17:45:10.431Z,94441.00
2023-05-09T17:46:10.353Z,94443.00
2023-05-09T17:47:10.308Z,94441.00
2023-05-09T17:48:10.339Z,94441.00
2023-05-09T17:49:10.284Z,94441.00
2023-05-09T17:50:10.278Z,94439.00
2023-05-09T17:51:10.288Z,94441.00
2023-05-09T17:52:10.269Z,94441.00
2023-05-09T17:53:10.258Z,94437.00
2023-05-09T17:54:10.286Z,94435.00
2023-05-09T17:55:10.244Z,94435.00
2023-05-09T17:56:10.233Z,94433.00
2023-05-09T17:57:10.228Z,94437.00
2023-05-09T17:58:10.224Z,94433.00
2023-05-09T17:59:10.219Z,94435.00
2023-05-09T18:00:10.221Z,94435.00
2023-05-09T18:01:10.413Z,94435.00
2023-05-09T18:02:10.186Z,94437.00
2023-05-09T18:03:10.332Z,94435.00
2023-05-09T18:04:10.180Z,94437.00
2023-05-09T18:05:10.168Z,94435.00
2023-05-09T18:06:10.174Z,94435.00
2023-05-09T18:07:10.160Z,94437.00
2023-05-09T18:08:10.150Z,94437.00
2023-05-09T18:09:10.133Z,94435.00
2023-05-09T18:10:10.141Z,94437.00
2023-05-09T18:11:10.137Z,94435.00
2023-05-09T18:12:10.114Z,94437.00
2023-05-09T18:13:10.191Z,94437.00
2023-05-09T18:14:10.105Z,94437.00
2023-05-09T18:15:10.089Z,94437.00
2023-05-09T18:16:10.149Z,94435.00
2023-05-09T18:17:10.201Z,94431.00
2023-05-09T18:18:11.553Z,94433.00
2023-05-09T18:19:10.063Z,94433.00
2023-05-09T18:20:10.065Z,94435.00
2023-05-09T18:21:10.048Z,94435.00
2023-05-09T18:22:10.044Z,94435.00
2023-05-09T18:23:10.037Z,94435.00
2023-05-09T18:24:10.031Z,94435.00
2023-05-09T18:25:10.037Z,94435.00
2023-05-09T18:26:10.268Z,94437.00
2023-05-09T18:27:10.005Z,94435.00
2023-05-09T18:28:09.997Z,94437.00
2023-05-09T18:29:09.991Z,94435.00
2023-05-09T18:30:09.982Z,94431.00
2023-05-09T18:31:10.034Z,94433.00
2023-05-09T18:32:09.975Z,94433.00
2023-05-09T18:33:10.146Z,94431.00
2023-05-09T18:34:09.965Z,94435.00